Messwerte Ogden

Temperatur

Temperatur
°C
1618894800 23.00 23.00 6
1618898400 0.00 0.00 6
1618902000 1.00 1.00 3
1618905600 2.00 2.00 4
1618909200 3.00 3.00 3
1618912800 4.00 4.00 3
1618916400 5.00 5.00
1618920000 6.00 6.00 1
1618923600 7.00 7.00 1
1618927200 8.00 8.00 3
1618930800 9.00 9.00 6
1618934400 10.00 10.00 7
1618938000 11.00 11.00 9
1618941600 12.00 12.00 9
1618945200 13.00 13.00 11
1618948800 14.00 14.00 12
1618952400 15.00 15.00 13
1618956000 16.00 16.00 14
1618959600 17.00 17.00 14
1618963200 18.00 18.00 14
1618966800 19.00 19.00 13
1618970400 20.00 20.00 12
1618974000 21.00 21.00 11
1618977600 22.00 22.00 9

Aktuellste Messwerte

Wettercharakter
Wetter: klar
Temperatur
10 °C
Feuchtigkeit
25 %
Wind
25 km/hWindrichtung: Ost
Böen
40 km/h
Luftdruck
1015 hPa
Messzeit: 20. April 2021, 23.00Datenquelle: METAR

Weitere Messstationen in der Nähe

Messstation Temperatur Entfernung
Layton 8 °C 9 km
Salt Lake City 10 °C 47 km
Logan 8 °C 67 km
Evanston -1 °C 82 km
Provo 10 °C 112 km
Wendover 10 °C 177 km
Pocatello 3 °C 197 km

Wind

Windrichtung Böen Mittelwind
° km/h km/h
1618894800 23.00 22.00 - 23.00 0
1618898400 0.00 23.00 - 0.00 10° 15
1618902000 1.00 0.00 - 1.00 310° 15
1618905600 2.00 1.00 - 2.00 280° 15
1618909200 3.00 2.00 - 3.00 50° 20
1618912800 4.00 3.00 - 4.00 40° 20
1618916400 5.00 4.00 - 5.00
1618920000 6.00 5.00 - 6.00 260° 20
1618923600 7.00 6.00 - 7.00 80° 10
1618927200 8.00 7.00 - 8.00 50° 20
1618930800 9.00 8.00 - 9.00 50° 15
1618934400 10.00 9.00 - 10.00 50° 15
1618938000 11.00 10.00 - 11.00 80° 10
1618941600 12.00 11.00 - 12.00
1618945200 13.00 12.00 - 13.00 5
1618948800 14.00 13.00 - 14.00 50° 10
1618952400 15.00 14.00 - 15.00 0
1618956000 16.00 15.00 - 16.00 320° 15
1618959600 17.00 16.00 - 17.00 0
1618963200 18.00 17.00 - 18.00 330° 10
1618966800 19.00 18.00 - 19.00 280° 5
1618970400 20.00 19.00 - 20.00 350° 10
1618974000 21.00 20.00 - 21.00 10° 15
1618977600 22.00 21.00 - 22.00 360° 10

Ihre Wetterstation

Fehlt Ihre Wetterstation auf unserem Portal?

Schreiben Sie an network@meteonews.ch

Klima

Wann ist es am wärmsten? Wann regnet es am wenigsten? Unsere Klimadaten geben Auskunft.